Terminal Aerodrome Forecast
Issued by NWS Grand Forks, ND

Home | Current Version | Previous Version | Text Only | Print | Product List | Glossary Off
Versions: 1 2 3 4 5 6 7 8 9 10 11 12 13 14 15 16 17 18

000
FTUS43 KFGF 212011 AAA
TAFGFK
TAF AMD
KGFK 212011Z 2120/2218 13010KT P6SM VCTS SCT050CB
      TEMPO 2120/2122 VRB15G35KT 1SM TSRA BKN030CB
     FM212300 10011KT P6SM VCTS BKN060CB
     FM220300 09006KT P6SM BKN060
     FM220400 07005KT P6SM SCT060
     FM220500 01005KT P6SM SCT060
     FM220600 31004KT P6SM SCT060
     FM221700 30016G24KT P6SM SCT150=

USA.gov is the U.S. government's official web portal to all federal, state and local government web resources and services.